sensor_id;sensor_type;location;lat;lon;timestamp;P1;durP1;ratioP1;P2;durP2;ratioP2
80227;SDS011;69539;42.138;24.742;2023-07-20T00:01:03;11.52;;;7.53;;
80227;SDS011;69539;42.138;24.742;2023-07-20T00:03:29;10.73;;;7.50;;
80227;SDS011;69539;42.138;24.742;2023-07-20T00:05:55;9.63;;;8.20;;
80227;SDS011;69539;42.138;24.742;2023-07-20T00:08:20;10.65;;;8.38;;
80227;SDS011;69539;42.138;24.742;2023-07-20T00:10:46;10.02;;;8.75;;
80227;SDS011;69539;42.138;24.742;2023-07-20T00:13:12;11.45;;;7.72;;
80227;SDS011;69539;42.138;24.742;2023-07-20T00:15:38;10.40;;;9.25;;
80227;SDS011;69539;42.138;24.742;2023-07-20T00:18:04;11.82;;;8.68;;
80227;SDS011;69539;42.138;24.742;2023-07-20T00:20:30;12.55;;;9.63;;
80227;SDS011;69539;42.138;24.742;2023-07-20T00:22:56;10.23;;;8.40;;
80227;SDS011;69539;42.138;24.742;2023-07-20T00:25:23;13.43;;;10.80;;
80227;SDS011;69539;42.138;24.742;2023-07-20T00:27:49;9.82;;;8.68;;
80227;SDS011;69539;42.138;24.742;2023-07-20T00:30:15;9.82;;;7.82;;
80227;SDS011;69539;42.138;24.742;2023-07-20T00:32:42;8.52;;;7.50;;
80227;SDS011;69539;42.138;24.742;2023-07-20T00:35:08;9.32;;;7.78;;
80227;SDS011;69539;42.138;24.742;2023-07-20T00:37:34;11.55;;;7.90;;
80227;SDS011;69539;42.138;24.742;2023-07-20T00:40:00;9.73;;;7.18;;
80227;SDS011;69539;42.138;24.742;2023-07-20T00:42:26;9.75;;;7.20;;
80227;SDS011;69539;42.138;24.742;2023-07-20T00:44:51;13.02;;;7.20;;
80227;SDS011;69539;42.138;24.742;2023-07-20T00:47:17;10.23;;;7.55;;
80227;SDS011;69539;42.138;24.742;2023-07-20T00:49:43;9.63;;;7.00;;
80227;SDS011;69539;42.138;24.742;2023-07-20T00:52:09;10.18;;;6.85;;
80227;SDS011;69539;42.138;24.742;2023-07-20T00:54:39;9.43;;;7.93;;
80227;SDS011;69539;42.138;24.742;2023-07-20T00:57:06;12.27;;;8.47;;
80227;SDS011;69539;42.138;24.742;2023-07-20T00:59:33;12.90;;;8.23;;
80227;SDS011;69539;42.138;24.742;2023-07-20T01:01:59;12.00;;;9.10;;
80227;SDS011;69539;42.138;24.742;2023-07-20T01:04:25;11.63;;;9.10;;
80227;SDS011;69539;42.138;24.742;2023-07-20T01:14:41;10.90;;;7.38;;
80227;SDS011;69539;42.138;24.742;2023-07-20T01:17:07;12.63;;;7.13;;
80227;SDS011;69539;42.138;24.742;2023-07-20T01:19:33;12.38;;;7.20;;
80227;SDS011;69539;42.138;24.742;2023-07-20T01:22:02;10.60;;;6.63;;
80227;SDS011;69539;42.138;24.742;2023-07-20T01:24:52;10.05;;;6.43;;
80227;SDS011;69539;42.138;24.742;2023-07-20T01:33:00;11.82;;;8.20;;
80227;SDS011;69539;42.138;24.742;2023-07-20T01:35:28;12.50;;;11.20;;
80227;SDS011;69539;42.138;24.742;2023-07-20T01:37:55;11.88;;;9.35;;
80227;SDS011;69539;42.138;24.742;2023-07-20T01:40:23;11.85;;;8.95;;
80227;SDS011;69539;42.138;24.742;2023-07-20T01:42:50;12.82;;;9.00;;
80227;SDS011;69539;42.138;24.742;2023-07-20T01:45:17;11.73;;;8.43;;
80227;SDS011;69539;42.138;24.742;2023-07-20T01:47:43;13.10;;;7.90;;
80227;SDS011;69539;42.138;24.742;2023-07-20T01:50:08;10.68;;;7.15;;
80227;SDS011;69539;42.138;24.742;2023-07-20T01:52:34;10.10;;;7.00;;
80227;SDS011;69539;42.138;24.742;2023-07-20T01:55:00;11.23;;;7.60;;
80227;SDS011;69539;42.138;24.742;2023-07-20T01:57:26;12.95;;;9.30;;
80227;SDS011;69539;42.138;24.742;2023-07-20T01:59:52;16.05;;;11.18;;
80227;SDS011;69539;42.138;24.742;2023-07-20T02:02:18;13.43;;;10.90;;
80227;SDS011;69539;42.138;24.742;2023-07-20T02:04:43;21.30;;;13.98;;
80227;SDS011;69539;42.138;24.742;2023-07-20T02:07:09;11.95;;;9.98;;
80227;SDS011;69539;42.138;24.742;2023-07-20T02:09:35;14.20;;;8.13;;
80227;SDS011;69539;42.138;24.742;2023-07-20T02:12:00;11.95;;;9.55;;
80227;SDS011;69539;42.138;24.742;2023-07-20T02:14:26;13.88;;;10.27;;
80227;SDS011;69539;42.138;24.742;2023-07-20T02:16:52;13.80;;;9.13;;
80227;SDS011;69539;42.138;24.742;2023-07-20T02:19:19;13.23;;;9.25;;
80227;SDS011;69539;42.138;24.742;2023-07-20T02:21:45;18.33;;;14.77;;
80227;SDS011;69539;42.138;24.742;2023-07-20T02:24:11;14.75;;;11.10;;
80227;SDS011;69539;42.138;24.742;2023-07-20T02:26:37;16.55;;;10.10;;
80227;SDS011;69539;42.138;24.742;2023-07-20T02:29:03;11.27;;;9.57;;
80227;SDS011;69539;42.138;24.742;2023-07-20T02:31:30;12.65;;;11.32;;
80227;SDS011;69539;42.138;24.742;2023-07-20T02:33:55;15.10;;;13.52;;
80227;SDS011;69539;42.138;24.742;2023-07-20T02:36:21;13.43;;;11.00;;
80227;SDS011;69539;42.138;24.742;2023-07-20T02:38:47;13.35;;;8.45;;
80227;SDS011;69539;42.138;24.742;2023-07-20T02:41:13;10.13;;;7.18;;
80227;SDS011;69539;42.138;24.742;2023-07-20T02:43:39;14.00;;;7.20;;
80227;SDS011;69539;42.138;24.742;2023-07-20T02:46:04;8.90;;;6.68;;
80227;SDS011;69539;42.138;24.742;2023-07-20T02:48:30;7.97;;;6.78;;
80227;SDS011;69539;42.138;24.742;2023-07-20T02:50:56;10.90;;;7.47;;
80227;SDS011;69539;42.138;24.742;2023-07-20T02:53:21;13.60;;;8.32;;
80227;SDS011;69539;42.138;24.742;2023-07-20T02:55:47;11.65;;;7.35;;
80227;SDS011;69539;42.138;24.742;2023-07-20T02:58:13;14.05;;;7.65;;
80227;SDS011;69539;42.138;24.742;2023-07-20T03:00:38;14.70;;;8.07;;
80227;SDS011;69539;42.138;24.742;2023-07-20T03:03:04;13.27;;;8.38;;
80227;SDS011;69539;42.138;24.742;2023-07-20T03:05:34;13.07;;;7.63;;
80227;SDS011;69539;42.138;24.742;2023-07-20T03:08:00;14.23;;;8.20;;
80227;SDS011;69539;42.138;24.742;2023-07-20T03:10:27;18.10;;;8.52;;
80227;SDS011;69539;42.138;24.742;2023-07-20T03:12:53;13.55;;;8.40;;
80227;SDS011;69539;42.138;24.742;2023-07-20T03:15:19;17.00;;;8.52;;
80227;SDS011;69539;42.138;24.742;2023-07-20T03:17:44;11.65;;;8.32;;
80227;SDS011;69539;42.138;24.742;2023-07-20T03:20:10;12.55;;;8.73;;
80227;SDS011;69539;42.138;24.742;2023-07-20T03:22:37;12.32;;;8.68;;
80227;SDS011;69539;42.138;24.742;2023-07-20T03:25:03;14.43;;;8.63;;
80227;SDS011;69539;42.138;24.742;2023-07-20T03:27:30;12.02;;;7.80;;
80227;SDS011;69539;42.138;24.742;2023-07-20T03:29:55;14.77;;;8.05;;
80227;SDS011;69539;42.138;24.742;2023-07-20T03:32:21;18.73;;;8.25;;
80227;SDS011;69539;42.138;24.742;2023-07-20T03:34:46;14.75;;;8.50;;
80227;SDS011;69539;42.138;24.742;2023-07-20T03:37:13;20.05;;;9.18;;
80227;SDS011;69539;42.138;24.742;2023-07-20T03:39:38;18.33;;;8.73;;
80227;SDS011;69539;42.138;24.742;2023-07-20T03:42:04;15.68;;;8.13;;
80227;SDS011;69539;42.138;24.742;2023-07-20T03:44:31;13.00;;;8.20;;
80227;SDS011;69539;42.138;24.742;2023-07-20T03:46:56;14.57;;;8.77;;
80227;SDS011;69539;42.138;24.742;2023-07-20T03:49:22;16.83;;;8.73;;
80227;SDS011;69539;42.138;24.742;2023-07-20T03:51:48;17.20;;;8.95;;
80227;SDS011;69539;42.138;24.742;2023-07-20T03:54:14;19.25;;;9.00;;
80227;SDS011;69539;42.138;24.742;2023-07-20T03:56:39;19.35;;;8.93;;
80227;SDS011;69539;42.138;24.742;2023-07-20T03:59:05;14.32;;;9.15;;
80227;SDS011;69539;42.138;24.742;2023-07-20T04:01:31;17.77;;;9.02;;
80227;SDS011;69539;42.138;24.742;2023-07-20T04:04:01;14.77;;;8.75;;
80227;SDS011;69539;42.138;24.742;2023-07-20T04:06:31;15.70;;;8.90;;
80227;SDS011;69539;42.138;24.742;2023-07-20T04:08:57;14.25;;;8.82;;
80227;SDS011;69539;42.138;24.742;2023-07-20T04:11:23;14.40;;;7.97;;
80227;SDS011;69539;42.138;24.742;2023-07-20T04:13:48;12.70;;;9.15;;
80227;SDS011;69539;42.138;24.742;2023-07-20T04:16:14;12.70;;;8.90;;
80227;SDS011;69539;42.138;24.742;2023-07-20T04:18:40;13.45;;;8.43;;
80227;SDS011;69539;42.138;24.742;2023-07-20T04:21:07;12.98;;;9.15;;
80227;SDS011;69539;42.138;24.742;2023-07-20T04:23:33;12.15;;;8.50;;
80227;SDS011;69539;42.138;24.742;2023-07-20T04:26:00;13.23;;;8.67;;
80227;SDS011;69539;42.138;24.742;2023-07-20T04:28:25;11.07;;;8.13;;
80227;SDS011;69539;42.138;24.742;2023-07-20T04:30:52;15.63;;;8.77;;
80227;SDS011;69539;42.138;24.742;2023-07-20T04:33:18;12.93;;;8.80;;
80227;SDS011;69539;42.138;24.742;2023-07-20T04:38:19;11.32;;;8.43;;
80227;SDS011;69539;42.138;24.742;2023-07-20T04:40:46;11.55;;;8.80;;
80227;SDS011;69539;42.138;24.742;2023-07-20T04:43:13;95.57;;;84.00;;
80227;SDS011;69539;42.138;24.742;2023-07-20T04:45:39;266.35;;;237.45;;
80227;SDS011;69539;42.138;24.742;2023-07-20T04:48:07;362.00;;;323.92;;
80227;SDS011;69539;42.138;24.742;2023-07-20T04:50:43;341.42;;;308.95;;
80227;SDS011;69539;42.138;24.742;2023-07-20T04:53:10;248.02;;;224.93;;
80227;SDS011;69539;42.138;24.742;2023-07-20T04:55:37;148.15;;;133.63;;
80227;SDS011;69539;42.138;24.742;2023-07-20T04:58:04;82.93;;;75.20;;
80227;SDS011;69539;42.138;24.742;2023-07-20T05:00:30;56.78;;;51.35;;
80227;SDS011;69539;42.138;24.742;2023-07-20T05:02:57;39.87;;;35.77;;
80227;SDS011;69539;42.138;24.742;2023-07-20T05:05:22;24.75;;;22.10;;
80227;SDS011;69539;42.138;24.742;2023-07-20T05:07:48;21.58;;;18.67;;
80227;SDS011;69539;42.138;24.742;2023-07-20T05:10:14;341.70;;;305.20;;
80227;SDS011;69539;42.138;24.742;2023-07-20T05:12:40;535.75;;;483.95;;
80227;SDS011;69539;42.138;24.742;2023-07-20T05:15:05;605.00;;;550.38;;
80227;SDS011;69539;42.138;24.742;2023-07-20T05:17:31;310.38;;;279.90;;
80227;SDS011;69539;42.138;24.742;2023-07-20T05:19:57;146.30;;;131.90;;
80227;SDS011;69539;42.138;24.742;2023-07-20T05:22:23;282.88;;;250.98;;
80227;SDS011;69539;42.138;24.742;2023-07-20T05:24:50;589.25;;;535.40;;
80227;SDS011;69539;42.138;24.742;2023-07-20T05:27:15;680.00;;;619.28;;
80227;SDS011;69539;42.138;24.742;2023-07-20T05:29:45;374.08;;;338.63;;
80227;SDS011;69539;42.138;24.742;2023-07-20T05:32:11;222.63;;;202.63;;
80227;SDS011;69539;42.138;24.742;2023-07-20T05:34:37;301.08;;;272.38;;
80227;SDS011;69539;42.138;24.742;2023-07-20T05:37:03;309.40;;;279.83;;
80227;SDS011;69539;42.138;24.742;2023-07-20T05:39:29;299.73;;;271.27;;
80227;SDS011;69539;42.138;24.742;2023-07-20T05:41:54;215.55;;;195.80;;
80227;SDS011;69539;42.138;24.742;2023-07-20T05:44:20;116.43;;;105.53;;
80227;SDS011;69539;42.138;24.742;2023-07-20T05:46:46;104.43;;;94.70;;
80227;SDS011;69539;42.138;24.742;2023-07-20T05:49:11;77.45;;;70.10;;
80227;SDS011;69539;42.138;24.742;2023-07-20T05:51:37;76.65;;;69.25;;
80227;SDS011;69539;42.138;24.742;2023-07-20T05:54:03;113.05;;;102.18;;
80227;SDS011;69539;42.138;24.742;2023-07-20T05:56:28;148.43;;;134.07;;
80227;SDS011;69539;42.138;24.742;2023-07-20T05:58:54;169.98;;;153.65;;
80227;SDS011;69539;42.138;24.742;2023-07-20T06:01:19;155.75;;;140.38;;
80227;SDS011;69539;42.138;24.742;2023-07-20T06:03:45;127.75;;;115.57;;
80227;SDS011;69539;42.138;24.742;2023-07-20T06:06:11;95.93;;;87.20;;
80227;SDS011;69539;42.138;24.742;2023-07-20T06:08:38;61.67;;;55.88;;
80227;SDS011;69539;42.138;24.742;2023-07-20T06:11:04;29.33;;;26.23;;
80227;SDS011;69539;42.138;24.742;2023-07-20T06:13:29;19.98;;;16.10;;
80227;SDS011;69539;42.138;24.742;2023-07-20T06:15:56;91.68;;;83.82;;
80227;SDS011;69539;42.138;24.742;2023-07-20T06:18:24;127.32;;;115.90;;
80227;SDS011;69539;42.138;24.742;2023-07-20T06:20:50;270.05;;;244.10;;
80227;SDS011;69539;42.138;24.742;2023-07-20T06:23:17;370.27;;;332.52;;
80227;SDS011;69539;42.138;24.742;2023-07-20T06:25:44;234.88;;;213.10;;
80227;SDS011;69539;42.138;24.742;2023-07-20T06:28:10;318.50;;;286.58;;
80227;SDS011;69539;42.138;24.742;2023-07-20T06:30:35;398.55;;;356.10;;
80227;SDS011;69539;42.138;24.742;2023-07-20T06:33:01;340.77;;;305.27;;
80227;SDS011;69539;42.138;24.742;2023-07-20T06:35:26;251.63;;;225.80;;
80227;SDS011;69539;42.138;24.742;2023-07-20T06:37:52;151.45;;;135.55;;
80227;SDS011;69539;42.138;24.742;2023-07-20T06:40:18;97.00;;;86.88;;
80227;SDS011;69539;42.138;24.742;2023-07-20T06:42:44;74.53;;;67.13;;
80227;SDS011;69539;42.138;24.742;2023-07-20T06:45:09;369.60;;;333.55;;
80227;SDS011;69539;42.138;24.742;2023-07-20T06:47:39;557.00;;;503.88;;
80227;SDS011;69539;42.138;24.742;2023-07-20T06:50:06;440.92;;;396.42;;
80227;SDS011;69539;42.138;24.742;2023-07-20T06:52:32;344.67;;;309.83;;
80227;SDS011;69539;42.138;24.742;2023-07-20T06:54:57;573.97;;;516.65;;
80227;SDS011;69539;42.138;24.742;2023-07-20T06:57:23;346.73;;;309.05;;
80227;SDS011;69539;42.138;24.742;2023-07-20T06:59:49;226.00;;;202.43;;
80227;SDS011;69539;42.138;24.742;2023-07-20T07:02:15;176.05;;;147.45;;
80227;SDS011;69539;42.138;24.742;2023-07-20T07:04:41;118.82;;;103.88;;
80227;SDS011;69539;42.138;24.742;2023-07-20T07:07:07;79.53;;;71.03;;
80227;SDS011;69539;42.138;24.742;2023-07-20T07:09:34;360.60;;;324.30;;
80227;SDS011;69539;42.138;24.742;2023-07-20T07:11:59;551.33;;;500.77;;
80227;SDS011;69539;42.138;24.742;2023-07-20T07:14:25;328.50;;;296.50;;
80227;SDS011;69539;42.138;24.742;2023-07-20T07:16:51;252.63;;;228.07;;
80227;SDS011;69539;42.138;24.742;2023-07-20T07:19:16;153.52;;;138.50;;
80227;SDS011;69539;42.138;24.742;2023-07-20T07:21:42;124.07;;;112.07;;
80227;SDS011;69539;42.138;24.742;2023-07-20T07:24:08;94.72;;;85.57;;
80227;SDS011;69539;42.138;24.742;2023-07-20T07:26:34;58.85;;;53.03;;
80227;SDS011;69539;42.138;24.742;2023-07-20T07:29:01;41.43;;;37.17;;
80227;SDS011;69539;42.138;24.742;2023-07-20T07:31:28;22.17;;;18.83;;
80227;SDS011;69539;42.138;24.742;2023-07-20T07:33:55;18.75;;;15.13;;
80227;SDS011;69539;42.138;24.742;2023-07-20T07:36:21;17.02;;;12.50;;
80227;SDS011;69539;42.138;24.742;2023-07-20T07:38:46;18.25;;;12.45;;
80227;SDS011;69539;42.138;24.742;2023-07-20T07:41:12;12.95;;;9.65;;
80227;SDS011;69539;42.138;24.742;2023-07-20T07:43:39;16.95;;;9.57;;
80227;SDS011;69539;42.138;24.742;2023-07-20T07:46:04;13.00;;;9.20;;
80227;SDS011;69539;42.138;24.742;2023-07-20T07:48:30;13.50;;;9.73;;
80227;SDS011;69539;42.138;24.742;2023-07-20T07:50:56;13.63;;;10.10;;
80227;SDS011;69539;42.138;24.742;2023-07-20T07:53:21;12.88;;;9.30;;
80227;SDS011;69539;42.138;24.742;2023-07-20T07:55:47;13.88;;;9.40;;
80227;SDS011;69539;42.138;24.742;2023-07-20T07:58:13;12.30;;;8.80;;
80227;SDS011;69539;42.138;24.742;2023-07-20T08:00:39;13.93;;;8.95;;
80227;SDS011;69539;42.138;24.742;2023-07-20T08:03:07;14.23;;;9.27;;
80227;SDS011;69539;42.138;24.742;2023-07-20T08:05:33;13.20;;;8.60;;
80227;SDS011;69539;42.138;24.742;2023-07-20T08:08:00;12.33;;;9.00;;
80227;SDS011;69539;42.138;24.742;2023-07-20T08:10:26;11.40;;;8.10;;
80227;SDS011;69539;42.138;24.742;2023-07-20T08:12:52;11.43;;;7.80;;
80227;SDS011;69539;42.138;24.742;2023-07-20T08:15:17;15.45;;;8.40;;
80227;SDS011;69539;42.138;24.742;2023-07-20T08:17:43;11.77;;;8.23;;
80227;SDS011;69539;42.138;24.742;2023-07-20T08:20:09;14.63;;;8.52;;
80227;SDS011;69539;42.138;24.742;2023-07-20T08:22:38;14.35;;;8.48;;
80227;SDS011;69539;42.138;24.742;2023-07-20T08:25:05;11.23;;;7.67;;
80227;SDS011;69539;42.138;24.742;2023-07-20T08:29:57;10.77;;;7.90;;
80227;SDS011;69539;42.138;24.742;2023-07-20T08:32:22;12.57;;;8.18;;
80227;SDS011;69539;42.138;24.742;2023-07-20T08:34:48;10.45;;;7.88;;
80227;SDS011;69539;42.138;24.742;2023-07-20T08:37:14;11.32;;;8.70;;
80227;SDS011;69539;42.138;24.742;2023-07-20T08:39:39;12.52;;;8.35;;
80227;SDS011;69539;42.138;24.742;2023-07-20T08:42:05;11.95;;;8.50;;
80227;SDS011;69539;42.138;24.742;2023-07-20T08:44:35;12.60;;;8.52;;
80227;SDS011;69539;42.138;24.742;2023-07-20T08:47:03;12.35;;;8.27;;
80227;SDS011;69539;42.138;24.742;2023-07-20T08:49:35;13.45;;;8.20;;
80227;SDS011;69539;42.138;24.742;2023-07-20T08:52:03;11.48;;;8.25;;
80227;SDS011;69539;42.138;24.742;2023-07-20T08:54:32;13.98;;;8.57;;
80227;SDS011;69539;42.138;24.742;2023-07-20T08:56:59;11.88;;;8.68;;
80227;SDS011;69539;42.138;24.742;2023-07-20T08:59:28;13.55;;;8.68;;
80227;SDS011;69539;42.138;24.742;2023-07-20T09:01:55;10.88;;;8.20;;
80227;SDS011;69539;42.138;24.742;2023-07-20T09:04:24;10.35;;;7.85;;
80227;SDS011;69539;42.138;24.742;2023-07-20T09:06:50;12.05;;;8.15;;
80227;SDS011;69539;42.138;24.742;2023-07-20T09:09:16;13.20;;;8.40;;
80227;SDS011;69539;42.138;24.742;2023-07-20T09:11:42;10.73;;;8.57;;
80227;SDS011;69539;42.138;24.742;2023-07-20T09:14:09;9.57;;;8.15;;
80227;SDS011;69539;42.138;24.742;2023-07-20T09:16:48;10.55;;;8.30;;
80227;SDS011;69539;42.138;24.742;2023-07-20T09:19:15;10.65;;;8.68;;
80227;SDS011;69539;42.138;24.742;2023-07-20T09:24:12;10.48;;;8.02;;
80227;SDS011;69539;42.138;24.742;2023-07-20T09:26:41;10.27;;;8.73;;
80227;SDS011;69539;42.138;24.742;2023-07-20T09:29:08;11.93;;;9.35;;
80227;SDS011;69539;42.138;24.742;2023-07-20T09:34:00;10.13;;;8.20;;
80227;SDS011;69539;42.138;24.742;2023-07-20T09:36:27;12.32;;;8.65;;
80227;SDS011;69539;42.138;24.742;2023-07-20T09:38:53;11.57;;;8.95;;
80227;SDS011;69539;42.138;24.742;2023-07-20T09:41:19;464.75;;;420.42;;
80227;SDS011;69539;42.138;24.742;2023-07-20T09:43:46;378.50;;;341.90;;
80227;SDS011;69539;42.138;24.742;2023-07-20T09:46:11;419.70;;;379.88;;
80227;SDS011;69539;42.138;24.742;2023-07-20T09:48:38;628.45;;;574.15;;
80227;SDS011;69539;42.138;24.742;2023-07-20T09:51:04;739.40;;;673.42;;
80227;SDS011;69539;42.138;24.742;2023-07-20T09:53:32;355.45;;;322.02;;
80227;SDS011;69539;42.138;24.742;2023-07-20T09:55:58;187.93;;;170.68;;
80227;SDS011;69539;42.138;24.742;2023-07-20T09:58:27;122.68;;;111.38;;
80227;SDS011;69539;42.138;24.742;2023-07-20T10:00:57;69.07;;;62.72;;
80227;SDS011;69539;42.138;24.742;2023-07-20T10:03:26;39.33;;;35.72;;
80227;SDS011;69539;42.138;24.742;2023-07-20T10:05:56;28.45;;;25.15;;
80227;SDS011;69539;42.138;24.742;2023-07-20T10:08:32;19.67;;;16.75;;
80227;SDS011;69539;42.138;24.742;2023-07-20T10:11:00;12.55;;;9.82;;
80227;SDS011;69539;42.138;24.742;2023-07-20T10:13:27;13.32;;;11.00;;
80227;SDS011;69539;42.138;24.742;2023-07-20T10:15:58;13.10;;;10.18;;
80227;SDS011;69539;42.138;24.742;2023-07-20T10:18:47;12.73;;;9.20;;
80227;SDS011;69539;42.138;24.742;2023-07-20T10:21:19;12.60;;;8.93;;
80227;SDS011;69539;42.138;24.742;2023-07-20T10:23:47;11.23;;;9.15;;
80227;SDS011;69539;42.138;24.742;2023-07-20T10:26:14;11.80;;;9.15;;
80227;SDS011;69539;42.138;24.742;2023-07-20T10:28:39;11.30;;;9.25;;
80227;SDS011;69539;42.138;24.742;2023-07-20T10:31:07;12.48;;;9.18;;
80227;SDS011;69539;42.138;24.742;2023-07-20T10:33:35;16.00;;;9.30;;
80227;SDS011;69539;42.138;24.742;2023-07-20T10:36:02;13.80;;;9.32;;
80227;SDS011;69539;42.138;24.742;2023-07-20T10:44:06;12.60;;;9.13;;
80227;SDS011;69539;42.138;24.742;2023-07-20T10:49:10;10.80;;;9.02;;
80227;SDS011;69539;42.138;24.742;2023-07-20T10:54:10;15.13;;;10.20;;
80227;SDS011;69539;42.138;24.742;2023-07-20T10:56:58;12.68;;;9.63;;
80227;SDS011;69539;42.138;24.742;2023-07-20T10:59:47;12.00;;;9.00;;
80227;SDS011;69539;42.138;24.742;2023-07-20T11:02:12;12.05;;;9.07;;
80227;SDS011;69539;42.138;24.742;2023-07-20T11:04:43;11.63;;;7.82;;
80227;SDS011;69539;42.138;24.742;2023-07-20T11:07:10;12.70;;;8.40;;
80227;SDS011;69539;42.138;24.742;2023-07-20T11:09:40;11.75;;;8.45;;
80227;SDS011;69539;42.138;24.742;2023-07-20T11:12:14;9.85;;;8.00;;
80227;SDS011;69539;42.138;24.742;2023-07-20T11:14:44;11.18;;;7.97;;
80227;SDS011;69539;42.138;24.742;2023-07-20T11:17:28;11.30;;;7.97;;
80227;SDS011;69539;42.138;24.742;2023-07-20T11:19:55;9.38;;;8.30;;
80227;SDS011;69539;42.138;24.742;2023-07-20T11:22:22;13.73;;;11.05;;
80227;SDS011;69539;42.138;24.742;2023-07-20T11:24:47;28.55;;;10.63;;
80227;SDS011;69539;42.138;24.742;2023-07-20T11:27:14;14.40;;;9.70;;
80227;SDS011;69539;42.138;24.742;2023-07-20T11:29:40;13.18;;;9.82;;
80227;SDS011;69539;42.138;24.742;2023-07-20T11:32:06;14.05;;;10.32;;
80227;SDS011;69539;42.138;24.742;2023-07-20T11:34:33;14.83;;;10.73;;
80227;SDS011;69539;42.138;24.742;2023-07-20T11:37:00;13.98;;;9.98;;
80227;SDS011;69539;42.138;24.742;2023-07-20T11:39:25;17.60;;;10.25;;
80227;SDS011;69539;42.138;24.742;2023-07-20T11:41:52;15.93;;;10.17;;
80227;SDS011;69539;42.138;24.742;2023-07-20T11:44:23;17.60;;;9.50;;
80227;SDS011;69539;42.138;24.742;2023-07-20T11:47:00;21.08;;;10.43;;
80227;SDS011;69539;42.138;24.742;2023-07-20T11:49:36;17.35;;;10.55;;
80227;SDS011;69539;42.138;24.742;2023-07-20T11:52:06;16.65;;;10.25;;
80227;SDS011;69539;42.138;24.742;2023-07-20T11:54:39;14.45;;;10.43;;
80227;SDS011;69539;42.138;24.742;2023-07-20T11:57:06;15.63;;;10.05;;
80227;SDS011;69539;42.138;24.742;2023-07-20T11:59:32;12.45;;;9.70;;
80227;SDS011;69539;42.138;24.742;2023-07-20T12:02:02;14.87;;;9.73;;
80227;SDS011;69539;42.138;24.742;2023-07-20T12:04:28;17.30;;;10.25;;
80227;SDS011;69539;42.138;24.742;2023-07-20T12:06:56;15.35;;;9.93;;
80227;SDS011;69539;42.138;24.742;2023-07-20T12:09:21;17.42;;;9.85;;
80227;SDS011;69539;42.138;24.742;2023-07-20T12:11:49;13.52;;;9.88;;
80227;SDS011;69539;42.138;24.742;2023-07-20T12:14:15;13.35;;;9.70;;
80227;SDS011;69539;42.138;24.742;2023-07-20T12:16:41;12.70;;;10.23;;
80227;SDS011;69539;42.138;24.742;2023-07-20T12:19:08;12.60;;;9.07;;
80227;SDS011;69539;42.138;24.742;2023-07-20T12:21:36;11.32;;;9.63;;
80227;SDS011;69539;42.138;24.742;2023-07-20T12:24:03;12.52;;;9.10;;
80227;SDS011;69539;42.138;24.742;2023-07-20T12:26:29;11.02;;;9.32;;
80227;SDS011;69539;42.138;24.742;2023-07-20T12:28:56;12.50;;;9.35;;
80227;SDS011;69539;42.138;24.742;2023-07-20T12:31:22;10.93;;;9.05;;
80227;SDS011;69539;42.138;24.742;2023-07-20T12:33:52;10.85;;;9.27;;
80227;SDS011;69539;42.138;24.742;2023-07-20T12:36:20;12.73;;;9.35;;
80227;SDS011;69539;42.138;24.742;2023-07-20T12:38:46;10.07;;;8.88;;
80227;SDS011;69539;42.138;24.742;2023-07-20T12:41:12;10.85;;;8.80;;
80227;SDS011;69539;42.138;24.742;2023-07-20T12:43:44;11.23;;;8.52;;
80227;SDS011;69539;42.138;24.742;2023-07-20T12:46:10;194.70;;;180.88;;
80227;SDS011;69539;42.138;24.742;2023-07-20T12:48:40;309.60;;;283.13;;
80227;SDS011;69539;42.138;24.742;2023-07-20T12:51:07;830.13;;;746.60;;
80227;SDS011;69539;42.138;24.742;2023-07-20T12:56:00;334.37;;;303.03;;
80227;SDS011;69539;42.138;24.742;2023-07-20T12:58:26;260.58;;;237.07;;
80227;SDS011;69539;42.138;24.742;2023-07-20T13:00:52;208.10;;;189.57;;
80227;SDS011;69539;42.138;24.742;2023-07-20T13:03:18;150.18;;;136.18;;
80227;SDS011;69539;42.138;24.742;2023-07-20T13:05:44;117.25;;;105.97;;
80227;SDS011;69539;42.138;24.742;2023-07-20T13:08:10;502.95;;;460.05;;
80227;SDS011;69539;42.138;24.742;2023-07-20T13:10:36;433.77;;;393.42;;
80227;SDS011;69539;42.138;24.742;2023-07-20T13:13:03;391.83;;;353.77;;
80227;SDS011;69539;42.138;24.742;2023-07-20T13:15:29;332.33;;;300.80;;
80227;SDS011;69539;42.138;24.742;2023-07-20T13:18:05;312.40;;;283.08;;
80227;SDS011;69539;42.138;24.742;2023-07-20T13:20:31;298.00;;;270.73;;
80227;SDS011;69539;42.138;24.742;2023-07-20T13:22:57;290.05;;;263.58;;
80227;SDS011;69539;42.138;24.742;2023-07-20T13:25:24;280.10;;;254.57;;
80227;SDS011;69539;42.138;24.742;2023-07-20T13:27:50;274.50;;;249.70;;
80227;SDS011;69539;42.138;24.742;2023-07-20T13:30:15;269.58;;;245.30;;
80227;SDS011;69539;42.138;24.742;2023-07-20T13:32:44;263.80;;;239.77;;
80227;SDS011;69539;42.138;24.742;2023-07-20T13:35:10;253.98;;;230.88;;
80227;SDS011;69539;42.138;24.742;2023-07-20T13:37:36;240.23;;;218.73;;
80227;SDS011;69539;42.138;24.742;2023-07-20T13:40:02;237.63;;;216.10;;
80227;SDS011;69539;42.138;24.742;2023-07-20T13:42:30;226.13;;;205.60;;
80227;SDS011;69539;42.138;24.742;2023-07-20T13:44:56;391.67;;;358.70;;
80227;SDS011;69539;42.138;24.742;2023-07-20T13:47:22;352.27;;;320.00;;
80227;SDS011;69539;42.138;24.742;2023-07-20T13:49:47;475.15;;;431.63;;
80227;SDS011;69539;42.138;24.742;2023-07-20T13:52:13;388.00;;;350.83;;
80227;SDS011;69539;42.138;24.742;2023-07-20T13:54:39;203.40;;;184.77;;
80227;SDS011;69539;42.138;24.742;2023-07-20T13:57:05;189.73;;;172.00;;
80227;SDS011;69539;42.138;24.742;2023-07-20T13:59:31;341.23;;;306.60;;
80227;SDS011;69539;42.138;24.742;2023-07-20T14:01:56;175.27;;;157.02;;
80227;SDS011;69539;42.138;24.742;2023-07-20T14:04:22;121.50;;;109.30;;
80227;SDS011;69539;42.138;24.742;2023-07-20T14:06:47;67.95;;;60.88;;
80227;SDS011;69539;42.138;24.742;2023-07-20T14:09:13;46.08;;;41.38;;
80227;SDS011;69539;42.138;24.742;2023-07-20T14:11:39;32.25;;;28.80;;
80227;SDS011;69539;42.138;24.742;2023-07-20T14:14:05;23.13;;;19.63;;
80227;SDS011;69539;42.138;24.742;2023-07-20T14:16:30;20.35;;;18.02;;
80227;SDS011;69539;42.138;24.742;2023-07-20T14:18:57;19.38;;;17.27;;
80227;SDS011;69539;42.138;24.742;2023-07-20T14:21:23;16.60;;;14.38;;
80227;SDS011;69539;42.138;24.742;2023-07-20T14:23:50;16.20;;;13.23;;
80227;SDS011;69539;42.138;24.742;2023-07-20T14:26:17;15.25;;;11.50;;
80227;SDS011;69539;42.138;24.742;2023-07-20T14:28:44;14.38;;;9.40;;
80227;SDS011;69539;42.138;24.742;2023-07-20T14:31:10;12.57;;;8.75;;
80227;SDS011;69539;42.138;24.742;2023-07-20T14:33:36;10.68;;;7.95;;
80227;SDS011;69539;42.138;24.742;2023-07-20T14:36:02;14.77;;;7.45;;
80227;SDS011;69539;42.138;24.742;2023-07-20T14:38:28;14.57;;;7.63;;
80227;SDS011;69539;42.138;24.742;2023-07-20T14:40:55;11.15;;;7.43;;
80227;SDS011;69539;42.138;24.742;2023-07-20T14:43:21;10.38;;;7.78;;
80227;SDS011;69539;42.138;24.742;2023-07-20T14:45:47;11.43;;;6.57;;